createdAt,value
2022-09-26T00:02:47.314Z,24.16
2022-09-26T00:12:53.477Z,24.10
2022-09-26T00:23:00.574Z,24.10
2022-09-26T00:33:07.170Z,24.08
2022-09-26T00:43:13.842Z,24.08
2022-09-26T00:53:20.310Z,24.04
2022-09-26T01:03:26.110Z,24.01
2022-09-26T01:13:32.154Z,23.96
2022-09-26T01:23:38.343Z,23.94
2022-09-26T01:33:44.626Z,23.96
2022-09-26T01:43:50.905Z,23.93
2022-09-26T01:53:57.030Z,23.94
2022-09-26T02:04:03.183Z,23.89
2022-09-26T02:14:09.149Z,23.91
2022-09-26T02:24:15.235Z,23.88
2022-09-26T02:34:21.154Z,23.87
2022-09-26T02:44:27.214Z,23.87
2022-09-26T02:54:34.195Z,23.86
2022-09-26T03:04:40.759Z,23.84
2022-09-26T03:14:46.732Z,23.88
2022-09-26T03:24:52.925Z,23.86
2022-09-26T03:34:58.958Z,23.82
2022-09-26T03:45:05.487Z,23.82
2022-09-26T03:55:11.959Z,23.81
2022-09-26T04:05:18.642Z,23.80
2022-09-26T04:15:24.981Z,23.79
2022-09-26T04:25:30.967Z,23.79
2022-09-26T04:35:37.039Z,23.79
2022-09-26T04:45:43.218Z,23.78
2022-09-26T04:55:49.869Z,23.77
2022-09-26T05:05:55.965Z,23.77
2022-09-26T05:16:02.486Z,23.74
2022-09-26T05:26:08.767Z,23.73
2022-09-26T05:36:15.659Z,23.73
2022-09-26T05:46:22.036Z,23.71
2022-09-26T05:56:28.509Z,23.72
2022-09-26T06:06:34.502Z,23.71
2022-09-26T06:16:41.128Z,23.70
2022-09-26T06:26:47.412Z,23.71
2022-09-26T06:36:53.897Z,23.71
2022-09-26T06:47:00.164Z,23.70
2022-09-26T06:57:06.346Z,23.72
2022-09-26T07:07:13.215Z,23.70
2022-09-26T07:17:20.055Z,23.69
2022-09-26T07:27:27.089Z,24.02
2022-09-26T07:37:34.227Z,24.13
2022-09-26T07:47:41.499Z,24.22
2022-09-26T07:57:48.704Z,24.25
2022-09-26T08:07:55.499Z,24.41
2022-09-26T08:18:02.694Z,24.46
2022-09-26T08:28:09.483Z,24.43
2022-09-26T08:38:16.258Z,24.43
2022-09-26T08:48:23.194Z,24.45
2022-09-26T08:58:29.941Z,24.44
2022-09-26T09:08:36.920Z,24.54
2022-09-26T09:18:43.570Z,24.55
2022-09-26T09:28:50.386Z,24.58
2022-09-26T09:38:57.527Z,24.66
2022-09-26T09:49:04.504Z,24.68
2022-09-26T09:59:11.575Z,24.68
2022-09-26T10:09:39.526Z,24.74
2022-09-26T10:19:30.572Z,24.78
2022-09-26T10:29:37.798Z,24.72
2022-09-26T10:39:44.821Z,24.76
2022-09-26T10:49:51.661Z,24.83
2022-09-26T10:59:58.666Z,24.75
2022-09-26T11:10:05.811Z,24.73
2022-09-26T11:20:12.787Z,24.64
2022-09-26T11:30:19.773Z,24.80
2022-09-26T11:40:26.156Z,24.88
2022-09-26T11:50:33.156Z,24.73
2022-09-26T12:00:39.290Z,24.70
2022-09-26T12:10:45.988Z,24.72
2022-09-26T12:20:52.629Z,24.70
2022-09-26T12:30:58.586Z,24.70
2022-09-26T12:41:05.911Z,24.69
2022-09-26T12:51:12.721Z,24.69
2022-09-26T13:01:20.982Z,24.81
2022-09-26T13:11:32.280Z,24.89
2022-09-26T13:21:39.910Z,24.89
2022-09-26T13:31:46.099Z,25.04
2022-09-26T13:41:52.272Z,24.91
2022-09-26T13:51:58.258Z,24.90
2022-09-26T14:02:04.825Z,25.01
2022-09-26T14:12:11.619Z,25.04
2022-09-26T14:22:18.155Z,24.99
2022-09-26T14:32:24.380Z,24.98
2022-09-26T14:42:31.213Z,24.98
2022-09-26T14:52:37.780Z,25.06
2022-09-26T15:02:44.228Z,25.06
2022-09-26T15:12:50.695Z,25.00
2022-09-26T15:22:57.903Z,25.03
2022-09-26T15:33:04.989Z,25.00
2022-09-26T15:43:11.796Z,25.08
2022-09-26T15:53:18.766Z,25.10
2022-09-26T16:03:25.471Z,25.11
2022-09-26T16:13:32.314Z,25.09
2022-09-26T16:23:38.209Z,25.05
2022-09-26T16:33:44.163Z,25.08
2022-09-26T16:43:50.364Z,25.15
2022-09-26T16:53:56.869Z,25.20
2022-09-26T17:04:02.586Z,25.11
2022-09-26T17:14:08.705Z,25.10
2022-09-26T17:24:15.146Z,25.02
2022-09-26T17:34:22.335Z,25.06
2022-09-26T17:44:28.807Z,25.06
2022-09-26T17:54:35.743Z,25.16
2022-09-26T18:04:42.680Z,25.16
2022-09-26T18:14:48.968Z,25.20
2022-09-26T18:24:55.532Z,25.31
2022-09-26T18:35:02.447Z,25.39
2022-09-26T18:45:08.922Z,25.36
2022-09-26T18:55:14.970Z,25.30
2022-09-26T19:05:20.984Z,25.25
2022-09-26T19:15:27.246Z,25.22
2022-09-26T19:25:33.900Z,25.21
2022-09-26T19:35:40.528Z,25.16
2022-09-26T19:45:47.159Z,25.14
2022-09-26T19:55:53.448Z,25.14
2022-09-26T20:05:59.713Z,25.10
2022-09-26T20:16:06.313Z,25.09
2022-09-26T20:26:12.481Z,25.12
2022-09-26T20:36:19.330Z,25.08
2022-09-26T20:46:26.268Z,25.02
2022-09-26T20:56:33.200Z,25.11
2022-09-26T21:06:40.127Z,25.22
2022-09-26T21:16:47.646Z,25.34
2022-09-26T21:26:54.649Z,25.35
2022-09-26T21:37:01.386Z,25.33
2022-09-26T21:47:08.667Z,25.29
2022-09-26T21:57:15.410Z,25.32
2022-09-26T22:07:22.352Z,25.42
2022-09-26T22:18:49.142Z,25.50
2022-09-26T22:28:55.182Z,25.39
2022-09-26T22:39:02.092Z,25.58
2022-09-26T22:49:09.166Z,25.49
2022-09-26T22:59:16.799Z,25.45
2022-09-26T23:09:24.245Z,25.50
2022-09-26T23:19:31.697Z,25.57
2022-09-26T23:29:38.694Z,25.47
2022-09-26T23:39:45.838Z,25.46
2022-09-26T23:49:53.289Z,25.53
